Time;durP1;ratioP1;P1;durP2;ratioP2;P2;SDS_P1;SDS_P2;PMS_P1;PMS_P2;Temp;Humidity;BMP_temperature;BMP_pressure;BME280_temperature;BME280_humidity;BME280_pressure;Samples;Min_cycle;Max_cycle;Signal;HPM_P1;HPM_P2
2021/01/17 00:00:41;;;;;;;57.20;38.33;;;-0.10;96.00;;;;;;5046008;28;21037;-81
2021/01/17 00:03:07;;;;;;;54.22;36.95;;;-0.10;96.10;;;;;;5047863;28;20072;-81
2021/01/17 00:05:33;;;;;;;56.63;38.03;;;-0.10;96.10;;;;;;5034562;28;20057;-82
2021/01/17 00:07:59;;;;;;;53.78;37.00;;;-0.10;96.00;;;;;;5061104;28;20113;-81
2021/01/17 00:10:28;;;;;;;52.05;34.55;;;-0.10;96.10;;;;;;5045586;28;20044;-81
2021/01/17 00:12:56;;;;;;;54.13;37.30;;;-0.10;96.00;;;;;;5047743;28;20056;-82
2021/01/17 00:15:22;;;;;;;58.40;39.15;;;-0.10;96.00;;;;;;5046690;28;20046;-81
2021/01/17 00:17:48;;;;;;;55.50;37.65;;;-0.10;96.00;;;;;;5041726;28;20053;-81
2021/01/17 00:20:17;;;;;;;57.10;39.47;;;-0.10;96.00;;;;;;5082358;28;20515;-81
2021/01/17 00:22:43;;;;;;;56.63;39.72;;;-0.10;96.00;;;;;;5043750;28;20065;-81
2021/01/17 00:25:12;;;;;;;56.63;38.50;;;-0.10;96.00;;;;;;5038366;28;20457;-81
2021/01/17 00:27:38;;;;;;;58.33;39.80;;;-0.10;96.00;;;;;;5044733;28;20048;-81
2021/01/17 00:30:06;;;;;;;56.55;40.42;;;-0.10;96.10;;;;;;5078553;28;20037;-81
2021/01/17 00:32:32;;;;;;;59.58;39.40;;;-0.10;96.00;;;;;;5039985;28;20119;-81
2021/01/17 00:34:58;;;;;;;59.92;41.30;;;-0.10;96.10;;;;;;5053532;28;20064;-81
2021/01/17 00:37:24;;;;;;;67.15;43.45;;;-0.10;96.10;;;;;;5037181;28;20459;-81
2021/01/17 00:39:50;;;;;;;68.97;44.85;;;-0.10;96.10;;;;;;5044583;28;20067;-82
2021/01/17 00:42:16;;;;;;;69.05;45.55;;;-0.10;96.20;;;;;;5023581;28;20083;-81
2021/01/17 00:44:43;;;;;;;60.80;42.55;;;0.00;96.20;;;;;;5075393;28;20053;-81
2021/01/17 00:47:13;;;;;;;58.33;40.90;;;-0.10;96.20;;;;;;5049148;28;20063;-83
2021/01/17 00:49:43;;;;;;;62.80;42.03;;;0.00;96.20;;;;;;5049657;28;20033;-81
2021/01/17 00:52:17;;;;;;;62.50;42.63;;;-0.10;96.20;;;;;;5041240;28;20458;-82
2021/01/17 00:54:43;;;;;;;63.45;43.28;;;0.00;96.30;;;;;;5044243;28;20057;-81
2021/01/17 00:57:09;;;;;;;66.20;43.03;;;-0.10;96.20;;;;;;5044751;28;20037;-82
2021/01/17 00:59:35;;;;;;;63.67;43.80;;;0.00;96.30;;;;;;5037957;28;20068;-82
2021/01/17 01:02:03;;;;;;;61.63;43.05;;;-0.10;96.20;;;;;;5048951;28;20067;-81
2021/01/17 01:04:28;;;;;;;62.75;43.25;;;0.00;96.20;;;;;;5040858;28;20060;-81
2021/01/17 01:06:54;;;;;;;62.42;41.88;;;0.00;96.30;;;;;;5047308;28;20053;-82
2021/01/17 01:09:20;;;;;;;66.53;43.17;;;0.00;96.30;;;;;;5044478;28;20190;-81
2021/01/17 01:11:47;;;;;;;65.30;43.40;;;0.00;96.30;;;;;;5048274;28;20049;-82
2021/01/17 01:14:16;;;;;;;65.65;44.80;;;-0.10;96.30;;;;;;5044275;28;20041;-82
2021/01/17 01:16:53;;;;;;;65.20;43.17;;;0.00;96.40;;;;;;5073934;28;20128;-82
2021/01/17 01:19:19;;;;;;;63.50;43.20;;;0.00;96.40;;;;;;5047119;28;20465;-81
2021/01/17 01:21:45;;;;;;;62.67;43.58;;;0.00;96.40;;;;;;5050596;28;20032;-82
2021/01/17 01:24:11;;;;;;;69.78;46.13;;;0.00;96.30;;;;;;5073006;28;20093;-82
2021/01/17 01:26:45;;;;;;;61.72;42.63;;;0.00;96.30;;;;;;5050193;28;20147;-81
2021/01/17 01:29:11;;;;;;;66.95;43.85;;;0.00;96.30;;;;;;5041543;28;20059;-81
2021/01/17 01:31:39;;;;;;;64.78;43.67;;;0.00;96.30;;;;;;5040394;28;20038;-82
2021/01/17 01:34:06;;;;;;;67.53;45.17;;;0.00;96.30;;;;;;5037031;28;20048;-82
2021/01/17 01:36:38;;;;;;;66.03;43.42;;;0.00;96.30;;;;;;5055893;28;20033;-82
2021/01/17 01:39:06;;;;;;;64.38;44.13;;;0.00;96.30;;;;;;5038693;28;20051;-81
2021/01/17 01:41:34;;;;;;;65.63;45.08;;;0.00;96.30;;;;;;5051723;28;20032;-81
2021/01/17 01:44:00;;;;;;;64.65;44.25;;;0.00;96.20;;;;;;5041231;28;20057;-81
2021/01/17 01:46:28;;;;;;;72.75;48.22;;;0.00;96.20;;;;;;5039152;28;20178;-82
2021/01/17 01:48:54;;;;;;;68.35;45.47;;;0.10;96.30;;;;;;5044007;28;20048;-81
2021/01/17 01:51:23;;;;;;;62.58;43.45;;;0.00;96.30;;;;;;5039125;28;20056;-81
2021/01/17 01:53:56;;;;;;;69.65;46.13;;;0.10;96.30;;;;;;5050442;28;20147;-81
2021/01/17 01:56:24;;;;;;;71.10;47.97;;;0.10;96.30;;;;;;5042348;28;20060;-81
2021/01/17 01:58:55;;;;;;;63.60;44.40;;;0.10;96.30;;;;;;5046875;28;20041;-81
2021/01/17 02:01:22;;;;;;;61.25;44.00;;;0.10;96.40;;;;;;5045553;28;20500;-82
2021/01/17 02:03:50;;;;;;;68.63;46.97;;;0.10;96.30;;;;;;5048279;28;20037;-82
2021/01/17 02:06:21;;;;;;;65.90;44.72;;;0.10;96.20;;;;;;5039526;28;20037;-81
2021/01/17 02:09:16;;;;;;;66.60;46.17;;;0.10;96.20;;;;;;5040908;28;20050;-81
2021/01/17 02:11:56;;;;;;;65.82;44.90;;;0.10;96.20;;;;;;5079072;28;20053;-81
2021/01/17 02:14:27;;;;;;;60.60;44.70;;;0.10;96.20;;;;;;5043558;28;20091;-81
2021/01/17 02:16:55;;;;;;;68.93;44.17;;;0.10;96.20;;;;;;5074489;28;20071;-81
2021/01/17 02:19:29;;;;;;;67.85;45.97;;;0.10;96.20;;;;;;5048929;28;20034;-81
2021/01/17 02:21:58;;;;;;;67.93;46.75;;;0.10;96.20;;;;;;5042262;28;20136;-82
2021/01/17 02:24:46;;;;;;;65.03;43.22;;;0.10;96.30;;;;;;5078024;28;20053;-82
2021/01/17 02:27:15;;;;;;;67.97;46.25;;;0.10;96.20;;;;;;5040794;28;20055;-82
2021/01/17 02:29:45;;;;;;;68.95;46.28;;;0.10;96.30;;;;;;5045277;28;20051;-82
2021/01/17 02:32:13;;;;;;;69.88;45.78;;;0.10;96.30;;;;;;5035785;28;20041;-82
2021/01/17 02:34:40;;;;;;;66.90;44.53;;;0.10;96.50;;;;;;5037487;28;20038;-82
2021/01/17 02:37:30;;;;;;;71.03;48.05;;;0.10;96.30;;;;;;5037057;28;20557;-81
2021/01/17 02:40:04;;;;;;;73.07;46.92;;;0.10;96.40;;;;;;5034307;28;20033;-81
2021/01/17 02:42:32;;;;;;;72.68;47.33;;;0.10;96.40;;;;;;5042334;28;20040;-81
2021/01/17 02:44:59;;;;;;;74.30;48.20;;;0.10;96.30;;;;;;5027231;28;20087;-81
2021/01/17 02:47:27;;;;;;;75.78;48.15;;;0.10;96.30;;;;;;5039938;28;20072;-81
2021/01/17 02:49:54;;;;;;;73.20;47.83;;;0.10;96.30;;;;;;5041433;28;20057;-81
2021/01/17 02:52:38;;;;;;;73.18;46.45;;;0.10;96.30;;;;;;5044034;28;20049;-82
2021/01/17 02:55:05;;;;;;;74.33;48.73;;;0.10;96.40;;;;;;5075707;28;20131;-82
2021/01/17 02:57:34;;;;;;;75.70;46.88;;;0.10;96.30;;;;;;5051466;28;20099;-82
2021/01/17 03:00:09;;;;;;;79.20;51.28;;;0.10;96.40;;;;;;5045559;28;20037;-82
2021/01/17 03:02:47;;;;;;;74.82;51.05;;;0.10;96.40;;;;;;5043167;28;20041;-81
2021/01/17 03:05:18;;;;;;;77.28;50.38;;;0.10;96.40;;;;;;5045103;28;20033;-81
2021/01/17 03:07:50;;;;;;;76.47;48.28;;;0.10;96.40;;;;;;5045036;28;20053;-83
2021/01/17 03:10:16;;;;;;;78.93;49.35;;;0.10;96.40;;;;;;5044475;28;20036;-82
2021/01/17 03:12:42;;;;;;;86.10;51.35;;;0.10;96.40;;;;;;5043258;28;20039;-82
2021/01/17 03:15:08;;;;;;;89.10;52.28;;;0.10;96.40;;;;;;5042211;28;20514;-81
2021/01/17 03:17:34;;;;;;;82.75;51.53;;;0.10;96.50;;;;;;5061895;28;20041;-81
2021/01/17 03:20:00;;;;;;;83.97;51.85;;;0.10;96.50;;;;;;5061701;28;20052;-81
2021/01/17 03:22:26;;;;;;;81.88;49.55;;;0.10;96.40;;;;;;5043698;28;20041;-82
2021/01/17 03:24:52;;;;;;;83.68;50.13;;;0.10;96.50;;;;;;5037365;28;20040;-81
2021/01/17 03:27:17;;;;;;;81.68;51.33;;;0.10;96.40;;;;;;5026812;28;20045;-81
2021/01/17 03:29:43;;;;;;;86.85;50.65;;;0.10;96.40;;;;;;5023186;28;20496;-81
2021/01/17 03:32:09;;;;;;;84.35;51.47;;;0.20;96.50;;;;;;5031740;28;20053;-81
2021/01/17 03:34:35;;;;;;;81.68;50.30;;;0.10;96.40;;;;;;5060591;28;20049;-81
2021/01/17 03:37:03;;;;;;;84.68;51.67;;;0.10;96.50;;;;;;5043184;28;20045;-81
2021/01/17 03:39:29;;;;;;;84.18;51.13;;;0.10;96.50;;;;;;5018614;28;20093;-81
2021/01/17 03:41:55;;;;;;;84.35;51.28;;;0.10;96.50;;;;;;5028726;28;20107;-81
2021/01/17 03:44:21;;;;;;;87.10;52.55;;;0.10;96.50;;;;;;5016815;28;20045;-81
2021/01/17 03:46:47;;;;;;;86.50;51.47;;;0.10;96.60;;;;;;5045707;28;20068;-82
2021/01/17 03:49:12;;;;;;;83.43;48.72;;;0.20;96.50;;;;;;5049337;28;20103;-81
2021/01/17 03:51:38;;;;;;;92.78;53.67;;;0.20;96.60;;;;;;5033663;28;20096;-81
2021/01/17 03:54:04;;;;;;;87.75;52.40;;;0.20;96.60;;;;;;5045229;28;20046;-82
2021/01/17 03:56:30;;;;;;;81.93;50.83;;;0.10;96.50;;;;;;5040816;28;20052;-81
2021/01/17 03:58:56;;;;;;;87.25;50.88;;;0.20;96.60;;;;;;5027166;28;20077;-82
2021/01/17 04:01:21;;;;;;;87.45;49.83;;;0.20;96.60;;;;;;5055765;28;20057;-81
2021/01/17 04:03:47;;;;;;;87.68;52.85;;;0.20;96.60;;;;;;5036142;28;20044;-81
2021/01/17 04:06:13;;;;;;;87.47;50.50;;;0.10;96.60;;;;;;5045292;28;20071;-82
2021/01/17 04:08:39;;;;;;;91.20;52.90;;;0.20;96.60;;;;;;5016615;28;20060;-81
2021/01/17 04:11:04;;;;;;;90.82;54.20;;;0.30;96.70;;;;;;5028152;28;20458;-82
2021/01/17 04:13:30;;;;;;;89.05;50.83;;;0.20;96.60;;;;;;5048766;28;20053;-81
2021/01/17 04:15:56;;;;;;;86.68;51.30;;;0.20;96.60;;;;;;5058589;28;20137;-82
2021/01/17 04:18:22;;;;;;;92.38;53.25;;;0.20;96.60;;;;;;5080351;28;20099;-82
2021/01/17 04:20:48;;;;;;;85.45;49.95;;;0.20;96.70;;;;;;5046975;28;20055;-81
2021/01/17 04:23:14;;;;;;;87.68;51.60;;;0.20;96.60;;;;;;5054490;28;20037;-82
2021/01/17 04:25:40;;;;;;;82.30;47.35;;;0.20;96.60;;;;;;5064491;28;20059;-81
2021/01/17 04:28:10;;;;;;;87.78;51.00;;;0.20;96.60;;;;;;5051716;28;20466;-83
2021/01/17 04:30:36;;;;;;;91.15;49.28;;;0.20;96.60;;;;;;5041052;28;20037;-82
2021/01/17 04:33:02;;;;;;;89.88;51.08;;;0.20;96.60;;;;;;5045169;28;20036;-82
2021/01/17 04:35:28;;;;;;;93.95;50.95;;;0.20;96.70;;;;;;5045622;28;20124;-81
2021/01/17 04:38:00;;;;;;;110.18;53.80;;;0.20;96.70;;;;;;5046965;28;20068;-81
2021/01/17 04:40:28;;;;;;;99.65;53.92;;;0.30;96.80;;;;;;5046811;28;20064;-82
2021/01/17 04:43:09;;;;;;;104.10;53.42;;;0.30;96.80;;;;;;5080745;28;20100;-81
2021/01/17 04:45:37;;;;;;;105.53;53.03;;;0.30;96.90;;;;;;5058473;28;20043;-82
2021/01/17 04:48:04;;;;;;;112.15;54.40;;;0.30;97.00;;;;;;5042444;28;20104;-81
2021/01/17 04:50:32;;;;;;;122.63;56.75;;;0.30;97.00;;;;;;5047092;28;20412;-81
2021/01/17 04:53:05;;;;;;;116.38;56.72;;;0.30;97.10;;;;;;5041877;28;20061;-82
2021/01/17 04:55:34;;;;;;;134.18;59.20;;;0.30;97.10;;;;;;5033600;28;20051;-82
2021/01/17 04:58:08;;;;;;;110.53;53.17;;;0.30;97.10;;;;;;5039208;28;20093;-81
2021/01/17 05:00:42;;;;;;;115.38;53.50;;;0.30;97.20;;;;;;5034222;28;20049;-81
2021/01/17 05:03:51;;;;;;;121.60;54.85;;;0.30;97.20;;;;;;5046361;28;20056;-81
2021/01/17 05:06:23;;;;;;;125.80;55.35;;;0.30;97.20;;;;;;5014262;28;20050;-81
2021/01/17 05:08:59;;;;;;;111.28;53.28;;;0.20;97.30;;;;;;5009805;28;20929;-81
2021/01/17 05:11:34;;;;;;;117.68;55.55;;;0.30;97.30;;;;;;5011420;28;20142;-81
2021/01/17 05:14:22;;;;;;;108.18;53.15;;;0.20;97.30;;;;;;4974663;28;20077;-82
2021/01/17 05:16:48;;;;;;;111.05;51.42;;;0.30;97.40;;;;;;5010423;28;20058;-82
2021/01/17 05:19:19;;;;;;;115.70;53.95;;;0.30;97.40;;;;;;4985039;28;20050;-82
2021/01/17 05:21:47;;;;;;;119.43;54.38;;;0.30;97.40;;;;;;5009990;28;20104;-82
2021/01/17 05:24:14;;;;;;;127.55;56.78;;;0.30;97.40;;;;;;4994035;28;20145;-82
2021/01/17 05:26:50;;;;;;;110.13;52.78;;;0.30;97.40;;;;;;4996590;28;20042;-82
2021/01/17 05:29:19;;;;;;;107.95;53.90;;;0.30;97.40;;;;;;4986134;28;20046;-82
2021/01/17 05:31:50;;;;;;;111.80;52.70;;;0.30;97.40;;;;;;4997404;28;20073;-81
2021/01/17 05:34:18;;;;;;;110.78;50.65;;;0.30;97.40;;;;;;4990153;28;20057;-81
2021/01/17 05:36:45;;;;;;;116.80;52.28;;;0.30;97.40;;;;;;4998269;28;20189;-81
2021/01/17 05:39:11;;;;;;;109.97;51.92;;;0.30;97.40;;;;;;5008006;28;20081;-81
2021/01/17 05:41:37;;;;;;;128.98;56.45;;;0.30;97.40;;;;;;5014388;28;20037;-81
2021/01/17 05:44:03;;;;;;;111.22;53.22;;;0.30;97.40;;;;;;5038598;28;20041;-81
2021/01/17 05:47:06;;;;;;;99.80;50.20;;;0.30;97.40;;;;;;5047905;28;20045;-81
2021/01/17 05:49:33;;;;;;;100.70;49.13;;;0.30;97.40;;;;;;5042710;28;20137;-81
2021/01/17 05:52:13;;;;;;;98.43;50.45;;;0.30;97.40;;;;;;5076331;28;20471;-81
2021/01/17 05:54:43;;;;;;;99.60;49.58;;;0.40;97.40;;;;;;5025560;28;20046;-81
2021/01/17 05:57:13;;;;;;;107.20;50.75;;;0.30;97.40;;;;;;5079403;28;20056;-81
2021/01/17 05:59:40;;;;;;;104.05;50.40;;;0.40;97.50;;;;;;5070555;28;20042;-81
2021/01/17 06:02:15;;;;;;;90.05;46.28;;;0.40;97.40;;;;;;5046234;28;20032;-81
2021/01/17 06:04:43;;;;;;;98.65;50.53;;;0.40;97.40;;;;;;5040278;28;20045;-81
2021/01/17 06:07:09;;;;;;;103.57;49.55;;;0.40;97.40;;;;;;5075875;28;20045;-82
2021/01/17 06:09:36;;;;;;;96.97;47.28;;;0.40;97.40;;;;;;5040643;28;20033;-82
2021/01/17 06:12:03;;;;;;;96.65;47.05;;;0.40;97.50;;;;;;5048578;28;20542;-82
2021/01/17 06:14:29;;;;;;;89.93;46.08;;;0.40;97.50;;;;;;5041150;28;20033;-82
2021/01/17 06:17:00;;;;;;;105.85;50.65;;;0.40;97.50;;;;;;5074939;28;20060;-81
2021/01/17 06:19:44;;;;;;;109.80;49.97;;;0.40;97.50;;;;;;5053514;28;20046;-82
2021/01/17 06:22:11;;;;;;;92.95;47.50;;;0.40;97.50;;;;;;5039807;28;20037;-81
2021/01/17 06:24:39;;;;;;;103.68;48.53;;;0.40;97.50;;;;;;5055046;28;20053;-82
2021/01/17 06:27:06;;;;;;;108.15;48.83;;;0.40;97.50;;;;;;5063297;28;20657;-83
2021/01/17 06:29:39;;;;;;;98.05;49.95;;;0.40;97.50;;;;;;5045514;28;20461;-82
2021/01/17 06:32:19;;;;;;;103.22;47.92;;;0.50;97.60;;;;;;5037387;28;20057;-82
2021/01/17 06:34:50;;;;;;;100.43;47.85;;;0.40;97.60;;;;;;5043344;28;20164;-81
2021/01/17 06:37:18;;;;;;;111.82;48.92;;;0.40;97.60;;;;;;5039651;28;20049;-82
2021/01/17 06:39:50;;;;;;;102.10;47.63;;;0.40;97.60;;;;;;5078935;28;20111;-82
2021/01/17 06:42:17;;;;;;;104.13;47.50;;;0.40;97.70;;;;;;5044185;28;20041;-83
2021/01/17 06:44:45;;;;;;;120.53;51.75;;;0.40;97.70;;;;;;5047793;28;20033;-82
2021/01/17 06:47:22;;;;;;;133.50;51.10;;;0.50;97.70;;;;;;5041608;28;20093;-83
2021/01/17 06:49:49;;;;;;;111.95;49.20;;;0.50;97.70;;;;;;5047724;28;20091;-83
2021/01/17 06:52:16;;;;;;;110.72;49.38;;;0.50;97.80;;;;;;5035651;28;20154;-83
2021/01/17 06:54:50;;;;;;;112.65;50.30;;;0.50;97.80;;;;;;5040456;28;20064;-83
2021/01/17 06:57:17;;;;;;;123.55;50.05;;;0.50;97.80;;;;;;5045680;28;20041;-83
2021/01/17 06:59:50;;;;;;;121.88;50.45;;;0.40;97.70;;;;;;5048136;28;20083;-83
2021/01/17 07:02:25;;;;;;;111.35;48.17;;;0.50;97.80;;;;;;5070485;28;20061;-84
2021/01/17 07:04:56;;;;;;;109.40;47.72;;;0.50;97.80;;;;;;5039897;28;20103;-82
2021/01/17 07:08:00;;;;;;;113.53;49.75;;;0.50;98.10;;;;;;5040627;28;20061;-82
2021/01/17 07:10:31;;;;;;;102.45;46.35;;;0.50;97.80;;;;;;5062821;28;20053;-82
2021/01/17 07:13:13;;;;;;;109.35;46.72;;;0.50;97.80;;;;;;5044307;28;20557;-82
2021/01/17 07:15:41;;;;;;;104.60;45.58;;;0.50;97.90;;;;;;5044652;28;20351;-82
2021/01/17 07:18:12;;;;;;;107.45;47.72;;;0.50;97.90;;;;;;5024015;28;20103;-82
2021/01/17 07:20:47;;;;;;;109.10;47.45;;;0.50;97.90;;;;;;5051941;28;20037;-82
2021/01/17 07:23:18;;;;;;;91.35;43.58;;;0.50;97.90;;;;;;5035319;28;20060;-82
2021/01/17 07:25:45;;;;;;;106.40;46.28;;;0.60;98.00;;;;;;5053938;28;20045;-82
2021/01/17 07:28:18;;;;;;;106.07;46.72;;;0.60;98.00;;;;;;5028702;28;20127;-82
2021/01/17 07:30:54;;;;;;;115.15;46.40;;;0.50;98.00;;;;;;5049428;28;20121;-82
2021/01/17 07:33:26;;;;;;;105.68;44.67;;;0.60;98.10;;;;;;5024214;28;20031;-83
2021/01/17 07:35:53;;;;;;;118.50;48.20;;;0.60;98.10;;;;;;5047855;28;20151;-82
2021/01/17 07:38:25;;;;;;;113.53;48.90;;;0.60;98.10;;;;;;5027166;28;20069;-82
2021/01/17 07:41:02;;;;;;;109.50;47.17;;;0.60;98.10;;;;;;5048697;28;20385;-82
2021/01/17 07:43:41;;;;;;;122.13;49.20;;;0.60;98.20;;;;;;5039298;28;20033;-82
2021/01/17 07:46:10;;;;;;;123.88;49.30;;;0.60;98.20;;;;;;5049837;28;20131;-82
2021/01/17 07:48:38;;;;;;;108.00;48.72;;;0.60;98.20;;;;;;5045795;28;20052;-83
2021/01/17 07:51:08;;;;;;;104.70;46.65;;;0.60;98.20;;;;;;5025740;28;20049;-82
2021/01/17 07:53:37;;;;;;;111.75;47.17;;;0.60;98.20;;;;;;5042629;28;20130;-82
2021/01/17 07:56:11;;;;;;;120.30;47.53;;;0.60;98.20;;;;;;5057791;28;20408;-82
2021/01/17 07:58:45;;;;;;;111.53;48.00;;;0.60;98.20;;;;;;5035555;28;20049;-82
2021/01/17 08:01:38;;;;;;;112.63;48.43;;;0.60;98.20;;;;;;5048069;28;20037;-83
2021/01/17 08:04:04;;;;;;;103.40;44.80;;;0.60;98.20;;;;;;5035826;28;20046;-83
2021/01/17 08:06:36;;;;;;;107.47;46.72;;;0.60;98.20;;;;;;5031873;28;20050;-82
2021/01/17 08:09:17;;;;;;;97.72;44.55;;;0.60;98.20;;;;;;5046190;28;20052;-82
2021/01/17 08:11:51;;;;;;;112.45;45.95;;;0.60;98.20;;;;;;5054762;28;20052;-82
2021/01/17 08:14:39;;;;;;;102.68;44.60;;;0.70;98.30;;;;;;5023677;28;20060;-82
2021/01/17 08:17:14;;;;;;;102.13;42.60;;;0.70;98.20;;;;;;5027355;28;20045;-82
2021/01/17 08:19:41;;;;;;;96.20;43.33;;;0.70;98.20;;;;;;5039516;28;20175;-83
2021/01/17 08:22:30;;;;;;;96.45;44.88;;;0.70;98.30;;;;;;5075686;28;20152;-83
2021/01/17 08:25:06;;;;;;;89.85;41.15;;;0.80;98.30;;;;;;5048500;28;20478;-83
2021/01/17 08:27:32;;;;;;;93.20;43.13;;;0.70;98.30;;;;;;5047345;28;20099;-83
2021/01/17 08:30:07;;;;;;;101.75;44.00;;;0.70;98.30;;;;;;5040375;28;20516;-83
2021/01/17 08:32:38;;;;;;;97.55;45.80;;;0.70;98.30;;;;;;5045172;28;20044;-82
2021/01/17 08:35:10;;;;;;;99.85;45.75;;;0.80;98.30;;;;;;5037121;28;20045;-82
2021/01/17 08:37:40;;;;;;;97.72;42.67;;;0.80;98.30;;;;;;5052248;28;20084;-81
2021/01/17 08:40:07;;;;;;;100.25;43.25;;;0.80;98.30;;;;;;5048617;28;20040;-82
2021/01/17 08:42:38;;;;;;;101.85;43.28;;;0.80;98.30;;;;;;5051824;28;20040;-82
2021/01/17 08:45:23;;;;;;;104.22;43.17;;;0.80;98.30;;;;;;5044549;28;20056;-82
2021/01/17 08:47:55;;;;;;;111.00;41.90;;;0.80;98.30;;;;;;5036991;28;20041;-82
2021/01/17 08:50:33;;;;;;;102.95;42.65;;;0.80;98.20;;;;;;5045720;28;20064;-82
2021/01/17 08:53:13;;;;;;;103.20;43.42;;;0.80;98.30;;;;;;5046014;28;20037;-82
2021/01/17 08:55:41;;;;;;;102.60;41.95;;;0.80;98.30;;;;;;5069395;28;20418;-82
2021/01/17 08:58:07;;;;;;;128.40;45.40;;;0.80;98.30;;;;;;5045574;28;20045;-82
2021/01/17 09:00:48;;;;;;;117.97;45.67;;;0.90;98.30;;;;;;5049041;28;20056;-83
2021/01/17 09:03:36;;;;;;;110.95;44.53;;;0.90;98.30;;;;;;5070828;28;20144;-85
2021/01/17 09:06:17;;;;;;;118.25;45.47;;;0.90;98.30;;;;;;5039936;28;20125;-85
2021/01/17 09:09:10;;;;;;;108.50;41.20;;;0.90;98.30;;;;;;5027645;28;20585;-85
2021/01/17 09:11:56;;;;;;;129.30;44.72;;;0.80;98.30;;;;;;5050459;28;20144;-82
2021/01/17 09:14:38;;;;;;;145.90;45.90;;;0.90;98.30;;;;;;5043839;28;20119;-83
2021/01/17 09:17:30;;;;;;;116.32;44.00;;;0.90;98.30;;;;;;5038750;28;20053;-83
2021/01/17 09:20:03;;;;;;;126.78;44.80;;;0.90;98.30;;;;;;5032873;28;20052;-84
2021/01/17 09:22:29;;;;;;;130.82;46.42;;;1.00;98.40;;;;;;5028652;28;20439;-86
2021/01/17 09:25:04;;;;;;;152.55;46.08;;;1.00;98.40;;;;;;5049743;28;20044;-83
2021/01/17 09:27:47;;;;;;;136.70;46.05;;;1.00;98.30;;;;;;5039355;28;20096;-89
2021/01/17 09:30:29;;;;;;;124.65;44.40;;;1.10;98.40;;;;;;5009652;28;20051;-83
2021/01/17 09:33:17;;;;;;;143.82;47.30;;;1.10;98.40;;;;;;5028743;28;20095;-86
2021/01/17 09:36:04;;;;;;;159.55;47.17;;;1.10;98.30;;;;;;5036182;28;20055;-88
2021/01/17 09:38:49;;;;;;;137.68;45.63;;;1.10;98.40;;;;;;5022071;28;20346;-86
2021/01/17 09:41:30;;;;;;;;;;;1.20;98.30;;;;;;5052332;28;20040;-88
2021/01/17 09:44:17;;;;;;;127.55;42.78;;;1.20;98.20;;;;;;5046726;28;20300;-89
2021/01/17 09:47:04;;;;;;;142.13;45.28;;;1.20;98.30;;;;;;5040286;28;20049;-88
2021/01/17 09:50:10;;;;;;;141.75;44.45;;;1.20;98.30;;;;;;4986214;28;20061;-88
2021/01/17 09:52:56;;;;;;;135.57;46.30;;;1.20;98.30;;;;;;5000642;28;20053;-86
2021/01/17 09:55:47;;;;;;;144.95;46.38;;;1.20;98.30;;;;;;4983058;28;20544;-87
2021/01/17 09:58:29;;;;;;;184.63;48.90;;;1.20;98.30;;;;;;4988249;28;20073;-85
2021/01/17 10:01:11;;;;;;;196.13;50.28;;;1.20;98.30;;;;;;5005691;28;20130;-86
2021/01/17 10:03:53;;;;;;;170.85;50.60;;;1.20;98.30;;;;;;5010227;28;20073;-85
2021/01/17 10:06:33;;;;;;;162.98;48.55;;;1.20;98.30;;;;;;5006105;28;20045;-87
2021/01/17 10:08:59;;;;;;;179.15;51.10;;;1.30;98.30;;;;;;4990328;28;20046;-86
2021/01/17 10:11:24;;;;;;;156.98;48.20;;;1.20;98.30;;;;;;5001199;28;20403;-87
2021/01/17 10:13:52;;;;;;;156.07;48.97;;;1.30;98.30;;;;;;5005131;28;20069;-88
2021/01/17 10:16:27;;;;;;;178.55;53.08;;;1.30;98.30;;;;;;5013731;28;20447;-86
2021/01/17 10:18:54;;;;;;;173.68;54.30;;;1.30;98.30;;;;;;5028329;28;20152;-89
2021/01/17 10:21:24;;;;;;;180.70;54.83;;;1.40;98.40;;;;;;4992716;28;20049;-89
2021/01/17 10:23:51;;;;;;;178.30;53.25;;;1.40;98.40;;;;;;4993679;28;20042;-89
2021/01/17 10:26:23;;;;;;;163.38;50.90;;;1.40;98.40;;;;;;5003474;28;20045;-88
2021/01/17 10:28:49;;;;;;;175.60;53.63;;;1.50;98.50;;;;;;4995836;28;20051;-86
2021/01/17 10:31:22;;;;;;;173.23;50.38;;;1.50;98.50;;;;;;5014507;28;20050;-89
2021/01/17 10:34:22;;;;;;;178.55;48.05;;;1.60;98.50;;;;;;5003618;28;20120;-90
2021/01/17 10:37:14;;;;;;;171.85;49.50;;;1.60;98.40;;;;;;5010268;28;20265;-83
2021/01/17 10:39:48;;;;;;;157.70;46.33;;;1.60;98.30;;;;;;5011131;28;20034;-89
2021/01/17 10:42:31;;;;;;;177.35;48.78;;;1.60;98.40;;;;;;5021905;28;20536;-87
2021/01/17 10:45:10;;;;;;;188.50;49.05;;;1.70;98.40;;;;;;5014878;28;20133;-88
2021/01/17 10:47:43;;;;;;;145.63;45.65;;;1.70;98.40;;;;;;5008390;28;20064;-86
2021/01/17 10:50:16;;;;;;;142.02;44.65;;;1.70;98.30;;;;;;5007906;28;20547;-85
2021/01/17 10:53:11;;;;;;;150.80;46.75;;;1.70;98.40;;;;;;5009132;28;20117;-84
2021/01/17 10:55:39;;;;;;;161.95;45.95;;;1.70;98.40;;;;;;5018345;28;20133;-84
2021/01/17 10:58:06;;;;;;;131.23;42.78;;;1.80;98.40;;;;;;5002572;28;20122;-84
2021/01/17 11:00:32;;;;;;;163.27;49.33;;;1.90;98.50;;;;;;4993242;28;20053;-84
2021/01/17 11:03:10;;;;;;;139.85;45.22;;;1.90;98.50;;;;;;5019677;28;20057;-85
2021/01/17 11:05:37;;;;;;;130.25;43.38;;;1.90;98.50;;;;;;5016608;28;20057;-87
2021/01/17 11:08:03;;;;;;;150.95;44.03;;;2.00;98.50;;;;;;5005471;28;20057;-88
2021/01/17 11:10:29;;;;;;;134.45;44.55;;;2.00;98.50;;;;;;5006817;28;20049;-88
2021/01/17 11:12:55;;;;;;;126.70;44.20;;;2.00;98.80;;;;;;5009669;28;20140;-87
2021/01/17 11:15:21;;;;;;;139.50;43.20;;;2.00;98.50;;;;;;5012246;28;20076;-90
2021/01/17 11:17:58;;;;;;;141.10;43.33;;;2.00;98.50;;;;;;4988211;28;20133;-87
2021/01/17 11:20:56;;;;;;;151.35;47.03;;;2.10;98.50;;;;;;5016386;28;20086;-88
2021/01/17 11:23:37;;;;;;;143.88;44.10;;;2.10;98.40;;;;;;5001432;28;20054;-87
2021/01/17 11:26:26;;;;;;;145.27;46.08;;;2.10;98.50;;;;;;5003896;28;20061;-90
2021/01/17 11:28:54;;;;;;;161.45;46.63;;;2.10;98.40;;;;;;5030578;28;20643;-88
2021/01/17 11:31:22;;;;;;;145.07;45.53;;;2.20;98.50;;;;;;5026123;28;20135;-89
2021/01/17 11:33:48;;;;;;;146.95;46.03;;;2.20;98.50;;;;;;4983232;28;20137;-90
2021/01/17 11:36:21;;;;;;;124.63;41.03;;;2.10;98.50;;;;;;5014933;28;20048;-90
2021/01/17 11:38:50;;;;;;;128.20;42.70;;;2.20;98.50;;;;;;5008600;28;20478;-91
2021/01/17 11:41:22;;;;;;;167.98;50.58;;;2.30;98.60;;;;;;5033424;28;20060;-91
2021/01/17 11:43:49;;;;;;;155.27;48.60;;;2.40;98.70;;;;;;5063985;28;20036;-88
2021/01/17 11:46:16;;;;;;;167.48;52.90;;;2.40;98.60;;;;;;5062141;28;20057;-89
2021/01/17 11:48:43;;;;;;;143.55;46.72;;;2.50;98.60;;;;;;5040454;28;20053;-86
2021/01/17 11:51:10;;;;;;;146.30;47.33;;;2.50;98.70;;;;;;5031171;28;20047;-87
2021/01/17 11:53:37;;;;;;;141.25;49.10;;;2.70;98.70;;;;;;5024790;28;20143;-87
2021/01/17 11:56:04;;;;;;;180.38;52.15;;;2.80;98.70;;;;;;5048760;28;20037;-85
2021/01/17 11:58:39;;;;;;;129.80;45.35;;;2.80;98.60;;;;;;5041667;28;20013;-88
2021/01/17 12:01:05;;;;;;;125.05;45.35;;;2.80;98.60;;;;;;5019420;28;20057;-86
2021/01/17 12:03:32;;;;;;;146.93;47.50;;;2.90;98.60;;;;;;5033396;28;20128;-88
2021/01/17 12:06:18;;;;;;;132.10;42.90;;;2.90;98.60;;;;;;5029411;28;20050;-87
2021/01/17 12:09:09;;;;;;;133.98;45.70;;;2.90;98.50;;;;;;5044794;28;20517;-86
2021/01/17 12:11:46;;;;;;;133.32;47.80;;;3.00;98.50;;;;;;5052349;28;20519;-86
2021/01/17 12:14:19;;;;;;;144.80;47.20;;;3.00;98.90;;;;;;5033350;28;20083;-86
2021/01/17 12:16:51;;;;;;;129.10;43.47;;;3.00;98.60;;;;;;5055119;28;20050;-86
2021/01/17 12:19:18;;;;;;;148.68;46.55;;;3.20;98.60;;;;;;5045855;28;20500;-86
2021/01/17 12:21:45;;;;;;;106.72;39.60;;;3.20;98.60;;;;;;5032955;28;20461;-86
2021/01/17 12:24:15;;;;;;;115.18;40.58;;;3.30;98.60;;;;;;5025830;28;20037;-86
2021/01/17 12:26:42;;;;;;;118.95;40.92;;;3.20;98.60;;;;;;5017680;28;20106;-86
2021/01/17 12:29:09;;;;;;;115.22;38.50;;;3.20;98.60;;;;;;5024656;28;20045;-86
2021/01/17 12:31:35;;;;;;;126.32;41.63;;;3.20;98.60;;;;;;5025390;28;20449;-86
2021/01/17 12:34:02;;;;;;;95.57;37.70;;;3.30;98.60;;;;;;5031532;28;20060;-87
2021/01/17 12:36:29;;;;;;;99.65;36.92;;;3.40;98.70;;;;;;5027129;28;20048;-86
2021/01/17 12:38:56;;;;;;;103.07;37.63;;;3.40;98.60;;;;;;5050839;28;20064;-87
2021/01/17 12:41:26;;;;;;;102.95;38.47;;;3.40;98.60;;;;;;5017796;28;20060;-87
2021/01/17 12:43:52;;;;;;;117.30;41.08;;;3.40;98.60;;;;;;5050485;28;20037;-88
2021/01/17 12:46:18;;;;;;;119.70;41.00;;;3.40;98.60;;;;;;5024578;28;20049;-88
2021/01/17 12:48:59;;;;;;;110.82;39.85;;;3.50;98.70;;;;;;5046973;28;20166;-88
2021/01/17 12:51:25;;;;;;;86.35;35.30;;;3.60;98.80;;;;;;5023266;28;20037;-88
2021/01/17 12:53:52;;;;;;;90.13;34.80;;;3.50;98.70;;;;;;5008546;28;20542;-88